sensor_id;sensor_type;location;lat;lon;timestamp;temperature;humidity
52531;DHT22;38441;52.894;6.040;2024-03-02T00:00:21;7.90;99.90
52531;DHT22;38441;52.894;6.040;2024-03-02T00:02:49;7.80;99.90
52531;DHT22;38441;52.894;6.040;2024-03-02T00:05:16;7.80;99.90
52531;DHT22;38441;52.894;6.040;2024-03-02T00:07:43;7.80;99.90
52531;DHT22;38441;52.894;6.040;2024-03-02T00:10:11;7.80;99.90
52531;DHT22;38441;52.894;6.040;2024-03-02T00:12:40;7.80;99.90
52531;DHT22;38441;52.894;6.040;2024-03-02T00:15:33;7.80;99.90
52531;DHT22;38441;52.894;6.040;2024-03-02T00:18:03;7.90;99.90
52531;DHT22;38441;52.894;6.040;2024-03-02T00:23:15;7.90;99.90
52531;DHT22;38441;52.894;6.040;2024-03-02T00:25:44;7.80;99.90
52531;DHT22;38441;52.894;6.040;2024-03-02T00:28:17;7.90;99.90
52531;DHT22;38441;52.894;6.040;2024-03-02T00:33:26;7.90;99.90
52531;DHT22;38441;52.894;6.040;2024-03-02T00:38:19;8.00;99.90
52531;DHT22;38441;52.894;6.040;2024-03-02T00:40:45;8.00;99.90
52531;DHT22;38441;52.894;6.040;2024-03-02T00:46:06;8.10;99.90
52531;DHT22;38441;52.894;6.040;2024-03-02T00:48:33;8.00;99.90
52531;DHT22;38441;52.894;6.040;2024-03-02T00:53:30;8.00;99.90
52531;DHT22;38441;52.894;6.040;2024-03-02T00:55:56;8.00;99.90
52531;DHT22;38441;52.894;6.040;2024-03-02T00:58:34;7.90;99.90
52531;DHT22;38441;52.894;6.040;2024-03-02T01:01:00;8.00;99.90
52531;DHT22;38441;52.894;6.040;2024-03-02T01:08:18;7.90;99.90
52531;DHT22;38441;52.894;6.040;2024-03-02T01:15:35;8.00;99.90
52531;DHT22;38441;52.894;6.040;2024-03-02T01:18:01;8.00;99.90
52531;DHT22;38441;52.894;6.040;2024-03-02T01:20:27;8.10;99.90
52531;DHT22;38441;52.894;6.040;2024-03-02T01:22:53;7.90;99.90
52531;DHT22;38441;52.894;6.040;2024-03-02T01:25:18;7.90;99.90
52531;DHT22;38441;52.894;6.040;2024-03-02T01:27:44;8.10;99.90
52531;DHT22;38441;52.894;6.040;2024-03-02T01:30:10;8.00;99.90
52531;DHT22;38441;52.894;6.040;2024-03-02T01:32:38;8.00;99.90
52531;DHT22;38441;52.894;6.040;2024-03-02T01:35:05;8.00;99.90
52531;DHT22;38441;52.894;6.040;2024-03-02T01:37:30;8.00;99.90
52531;DHT22;38441;52.894;6.040;2024-03-02T01:42:22;8.00;99.90
52531;DHT22;38441;52.894;6.040;2024-03-02T01:44:48;8.10;99.90
52531;DHT22;38441;52.894;6.040;2024-03-02T01:47:14;8.00;99.90
52531;DHT22;38441;52.894;6.040;2024-03-02T01:49:39;7.90;99.90
52531;DHT22;38441;52.894;6.040;2024-03-02T01:52:07;8.00;99.90
52531;DHT22;38441;52.894;6.040;2024-03-02T01:54:33;7.90;99.90
52531;DHT22;38441;52.894;6.040;2024-03-02T01:56:59;7.90;99.90
52531;DHT22;38441;52.894;6.040;2024-03-02T01:59:25;8.00;99.90
52531;DHT22;38441;52.894;6.040;2024-03-02T02:01:51;8.00;99.90
52531;DHT22;38441;52.894;6.040;2024-03-02T02:06:44;8.00;99.90
52531;DHT22;38441;52.894;6.040;2024-03-02T02:09:10;8.00;99.90
52531;DHT22;38441;52.894;6.040;2024-03-02T02:11:35;8.00;99.90
52531;DHT22;38441;52.894;6.040;2024-03-02T02:14:01;8.00;99.90
52531;DHT22;38441;52.894;6.040;2024-03-02T02:18:53;8.00;99.90
52531;DHT22;38441;52.894;6.040;2024-03-02T02:21:22;7.90;99.90
52531;DHT22;38441;52.894;6.040;2024-03-02T02:23:48;8.00;99.90
52531;DHT22;38441;52.894;6.040;2024-03-02T02:31:15;8.00;99.90
52531;DHT22;38441;52.894;6.040;2024-03-02T02:36:07;8.10;99.90
52531;DHT22;38441;52.894;6.040;2024-03-02T02:41:00;8.00;99.90
52531;DHT22;38441;52.894;6.040;2024-03-02T02:43:26;8.10;99.90
52531;DHT22;38441;52.894;6.040;2024-03-02T02:45:51;8.20;99.90
52531;DHT22;38441;52.894;6.040;2024-03-02T02:48:17;8.10;99.90
52531;DHT22;38441;52.894;6.040;2024-03-02T02:53:09;8.20;99.90
52531;DHT22;38441;52.894;6.040;2024-03-02T02:55:35;8.20;99.90
52531;DHT22;38441;52.894;6.040;2024-03-02T02:58:06;8.30;99.90
52531;DHT22;38441;52.894;6.040;2024-03-02T03:00:32;8.30;99.90
52531;DHT22;38441;52.894;6.040;2024-03-02T03:05:24;8.30;99.90
52531;DHT22;38441;52.894;6.040;2024-03-02T03:07:49;8.40;99.90
52531;DHT22;38441;52.894;6.040;2024-03-02T03:10:16;8.30;99.90
52531;DHT22;38441;52.894;6.040;2024-03-02T03:12:42;8.30;99.90
52531;DHT22;38441;52.894;6.040;2024-03-02T03:15:09;8.40;99.90
52531;DHT22;38441;52.894;6.040;2024-03-02T03:17:35;8.30;99.90
52531;DHT22;38441;52.894;6.040;2024-03-02T03:20:03;8.30;99.90
52531;DHT22;38441;52.894;6.040;2024-03-02T03:22:30;8.40;99.90
52531;DHT22;38441;52.894;6.040;2024-03-02T03:24:57;8.30;99.90
52531;DHT22;38441;52.894;6.040;2024-03-02T03:27:22;8.30;99.90
52531;DHT22;38441;52.894;6.040;2024-03-02T03:29:48;8.20;99.90
52531;DHT22;38441;52.894;6.040;2024-03-02T03:32:14;8.30;99.90
52531;DHT22;38441;52.894;6.040;2024-03-02T03:34:39;8.30;99.90
52531;DHT22;38441;52.894;6.040;2024-03-02T03:37:05;8.30;99.90
52531;DHT22;38441;52.894;6.040;2024-03-02T03:39:31;8.30;99.90
52531;DHT22;38441;52.894;6.040;2024-03-02T03:41:59;8.30;99.90
52531;DHT22;38441;52.894;6.040;2024-03-02T03:44:24;8.40;99.90
52531;DHT22;38441;52.894;6.040;2024-03-02T03:46:50;8.30;99.90
52531;DHT22;38441;52.894;6.040;2024-03-02T03:51:42;8.30;99.90
52531;DHT22;38441;52.894;6.040;2024-03-02T03:54:08;8.30;99.90
52531;DHT22;38441;52.894;6.040;2024-03-02T03:56:34;8.20;99.90
52531;DHT22;38441;52.894;6.040;2024-03-02T03:58:59;8.30;99.90
52531;DHT22;38441;52.894;6.040;2024-03-02T04:01:25;8.20;99.90
52531;DHT22;38441;52.894;6.040;2024-03-02T04:03:51;8.20;99.90
52531;DHT22;38441;52.894;6.040;2024-03-02T04:06:16;8.20;99.90
52531;DHT22;38441;52.894;6.040;2024-03-02T04:08:42;8.20;99.90
52531;DHT22;38441;52.894;6.040;2024-03-02T04:11:09;8.20;99.90
52531;DHT22;38441;52.894;6.040;2024-03-02T04:13:36;8.20;99.90
52531;DHT22;38441;52.894;6.040;2024-03-02T04:16:02;8.20;99.90
52531;DHT22;38441;52.894;6.040;2024-03-02T04:18:29;8.10;99.90
52531;DHT22;38441;52.894;6.040;2024-03-02T04:23:21;8.00;99.90
52531;DHT22;38441;52.894;6.040;2024-03-02T04:25:46;8.00;99.90
52531;DHT22;38441;52.894;6.040;2024-03-02T04:28:12;8.10;99.90
52531;DHT22;38441;52.894;6.040;2024-03-02T04:30:38;8.00;99.90
52531;DHT22;38441;52.894;6.040;2024-03-02T04:33:04;8.00;99.90
52531;DHT22;38441;52.894;6.040;2024-03-02T04:35:31;7.90;99.90
52531;DHT22;38441;52.894;6.040;2024-03-02T04:37:56;8.00;99.90
52531;DHT22;38441;52.894;6.040;2024-03-02T04:40:22;8.00;99.90
52531;DHT22;38441;52.894;6.040;2024-03-02T04:42:48;8.00;99.90
52531;DHT22;38441;52.894;6.040;2024-03-02T04:45:13;7.90;99.90
52531;DHT22;38441;52.894;6.040;2024-03-02T04:47:39;7.90;99.90
52531;DHT22;38441;52.894;6.040;2024-03-02T04:50:05;7.80;99.90
52531;DHT22;38441;52.894;6.040;2024-03-02T04:52:33;7.80;99.90
52531;DHT22;38441;52.894;6.040;2024-03-02T04:54:58;7.80;99.90
52531;DHT22;38441;52.894;6.040;2024-03-02T04:57:56;7.70;99.90
52531;DHT22;38441;52.894;6.040;2024-03-02T05:00:22;7.60;99.90
52531;DHT22;38441;52.894;6.040;2024-03-02T05:05:14;7.50;99.90
52531;DHT22;38441;52.894;6.040;2024-03-02T05:07:42;7.50;99.90
52531;DHT22;38441;52.894;6.040;2024-03-02T05:12:37;7.50;99.90
52531;DHT22;38441;52.894;6.040;2024-03-02T05:15:12;7.50;99.90
52531;DHT22;38441;52.894;6.040;2024-03-02T05:17:42;7.40;99.90
52531;DHT22;38441;52.894;6.040;2024-03-02T05:20:11;7.30;99.90
52531;DHT22;38441;52.894;6.040;2024-03-02T05:22:37;7.40;99.90
52531;DHT22;38441;52.894;6.040;2024-03-02T05:25:04;7.30;99.90
52531;DHT22;38441;52.894;6.040;2024-03-02T05:29:56;7.40;99.90
52531;DHT22;38441;52.894;6.040;2024-03-02T05:32:23;7.30;99.90
52531;DHT22;38441;52.894;6.040;2024-03-02T05:34:48;7.30;99.90
52531;DHT22;38441;52.894;6.040;2024-03-02T05:37:16;7.30;99.90
52531;DHT22;38441;52.894;6.040;2024-03-02T05:39:42;7.20;99.90
52531;DHT22;38441;52.894;6.040;2024-03-02T05:42:09;7.20;99.90
52531;DHT22;38441;52.894;6.040;2024-03-02T05:44:38;7.30;99.90
52531;DHT22;38441;52.894;6.040;2024-03-02T05:47:03;7.20;99.90
52531;DHT22;38441;52.894;6.040;2024-03-02T05:49:29;7.10;99.90
52531;DHT22;38441;52.894;6.040;2024-03-02T05:51:55;7.10;99.90
52531;DHT22;38441;52.894;6.040;2024-03-02T05:54:21;7.10;99.90
52531;DHT22;38441;52.894;6.040;2024-03-02T05:56:47;7.00;99.90
52531;DHT22;38441;52.894;6.040;2024-03-02T05:59:13;7.10;99.90
52531;DHT22;38441;52.894;6.040;2024-03-02T06:01:42;7.10;99.90
52531;DHT22;38441;52.894;6.040;2024-03-02T06:04:12;7.00;99.90
52531;DHT22;38441;52.894;6.040;2024-03-02T06:09:05;7.10;99.90
52531;DHT22;38441;52.894;6.040;2024-03-02T06:11:36;7.00;99.90
52531;DHT22;38441;52.894;6.040;2024-03-02T06:14:14;7.00;99.90
52531;DHT22;38441;52.894;6.040;2024-03-02T06:16:40;6.90;99.90
52531;DHT22;38441;52.894;6.040;2024-03-02T06:19:06;6.80;99.90
52531;DHT22;38441;52.894;6.040;2024-03-02T06:21:32;6.90;99.90
52531;DHT22;38441;52.894;6.040;2024-03-02T06:31:17;6.80;99.90
52531;DHT22;38441;52.894;6.040;2024-03-02T06:38:38;6.80;99.90
52531;DHT22;38441;52.894;6.040;2024-03-02T06:41:05;6.70;99.90
52531;DHT22;38441;52.894;6.040;2024-03-02T06:43:31;6.70;99.90
52531;DHT22;38441;52.894;6.040;2024-03-02T06:48:23;6.80;99.90
52531;DHT22;38441;52.894;6.040;2024-03-02T06:50:50;6.70;99.90
52531;DHT22;38441;52.894;6.040;2024-03-02T06:55:45;6.70;99.90
52531;DHT22;38441;52.894;6.040;2024-03-02T06:58:14;6.70;99.90
52531;DHT22;38441;52.894;6.040;2024-03-02T07:00:43;6.70;99.90
52531;DHT22;38441;52.894;6.040;2024-03-02T07:10:28;6.80;99.90
52531;DHT22;38441;52.894;6.040;2024-03-02T07:15:20;6.80;99.90
52531;DHT22;38441;52.894;6.040;2024-03-02T07:20:30;6.80;99.90
52531;DHT22;38441;52.894;6.040;2024-03-02T07:22:56;6.90;99.90
52531;DHT22;38441;52.894;6.040;2024-03-02T07:27:47;6.90;99.90
52531;DHT22;38441;52.894;6.040;2024-03-02T07:30:14;7.00;99.90
52531;DHT22;38441;52.894;6.040;2024-03-02T07:32:41;7.00;99.90
52531;DHT22;38441;52.894;6.040;2024-03-02T07:35:13;7.20;99.90
52531;DHT22;38441;52.894;6.040;2024-03-02T07:37:40;7.10;99.90
52531;DHT22;38441;52.894;6.040;2024-03-02T07:40:07;7.10;99.90
52531;DHT22;38441;52.894;6.040;2024-03-02T07:42:35;7.10;99.90
52531;DHT22;38441;52.894;6.040;2024-03-02T07:45:01;7.20;99.90
52531;DHT22;38441;52.894;6.040;2024-03-02T07:49:52;7.20;99.90
52531;DHT22;38441;52.894;6.040;2024-03-02T07:52:18;7.30;99.90
52531;DHT22;38441;52.894;6.040;2024-03-02T07:54:44;7.10;99.90
52531;DHT22;38441;52.894;6.040;2024-03-02T07:57:09;7.40;99.90
52531;DHT22;38441;52.894;6.040;2024-03-02T07:59:36;7.40;99.90
52531;DHT22;38441;52.894;6.040;2024-03-02T08:02:02;7.50;99.90
52531;DHT22;38441;52.894;6.040;2024-03-02T08:04:28;7.60;99.90
52531;DHT22;38441;52.894;6.040;2024-03-02T08:06:54;7.60;99.90
52531;DHT22;38441;52.894;6.040;2024-03-02T08:09:20;7.70;99.90
52531;DHT22;38441;52.894;6.040;2024-03-02T08:11:45;7.80;99.90
52531;DHT22;38441;52.894;6.040;2024-03-02T08:14:11;7.70;99.90
52531;DHT22;38441;52.894;6.040;2024-03-02T08:16:36;7.80;99.90
52531;DHT22;38441;52.894;6.040;2024-03-02T08:19:02;7.90;99.90
52531;DHT22;38441;52.894;6.040;2024-03-02T08:21:28;8.00;99.90
52531;DHT22;38441;52.894;6.040;2024-03-02T08:23:57;8.20;99.90
52531;DHT22;38441;52.894;6.040;2024-03-02T08:26:23;8.10;99.90
52531;DHT22;38441;52.894;6.040;2024-03-02T08:28:49;8.10;99.90
52531;DHT22;38441;52.894;6.040;2024-03-02T08:31:15;8.20;99.90
52531;DHT22;38441;52.894;6.040;2024-03-02T08:33:41;8.20;99.90
52531;DHT22;38441;52.894;6.040;2024-03-02T08:36:07;8.30;99.90
52531;DHT22;38441;52.894;6.040;2024-03-02T08:43:29;8.30;99.90
52531;DHT22;38441;52.894;6.040;2024-03-02T08:45:55;8.40;99.90
52531;DHT22;38441;52.894;6.040;2024-03-02T08:50:46;8.40;99.90
52531;DHT22;38441;52.894;6.040;2024-03-02T08:53:12;8.30;99.90
52531;DHT22;38441;52.894;6.040;2024-03-02T08:55:38;8.30;99.90
52531;DHT22;38441;52.894;6.040;2024-03-02T08:58:04;8.30;99.90
52531;DHT22;38441;52.894;6.040;2024-03-02T09:00:29;8.30;99.90
52531;DHT22;38441;52.894;6.040;2024-03-02T09:02:55;8.30;99.90
52531;DHT22;38441;52.894;6.040;2024-03-02T09:05:21;8.30;99.90
52531;DHT22;38441;52.894;6.040;2024-03-02T09:07:46;8.50;99.90
52531;DHT22;38441;52.894;6.040;2024-03-02T09:10:12;8.60;99.90
52531;DHT22;38441;52.894;6.040;2024-03-02T09:12:41;8.50;99.90
52531;DHT22;38441;52.894;6.040;2024-03-02T09:15:07;8.40;99.90
52531;DHT22;38441;52.894;6.040;2024-03-02T09:17:33;8.60;99.90
52531;DHT22;38441;52.894;6.040;2024-03-02T09:19:58;8.60;99.90
52531;DHT22;38441;52.894;6.040;2024-03-02T09:22:24;8.60;99.90
52531;DHT22;38441;52.894;6.040;2024-03-02T09:24:50;8.60;99.90
52531;DHT22;38441;52.894;6.040;2024-03-02T09:27:15;8.60;99.90
52531;DHT22;38441;52.894;6.040;2024-03-02T09:29:41;8.60;99.90
52531;DHT22;38441;52.894;6.040;2024-03-02T09:32:08;8.70;99.90
52531;DHT22;38441;52.894;6.040;2024-03-02T09:34:33;8.70;99.90
52531;DHT22;38441;52.894;6.040;2024-03-02T09:36:59;8.80;99.90
52531;DHT22;38441;52.894;6.040;2024-03-02T09:39:25;8.80;99.90
52531;DHT22;38441;52.894;6.040;2024-03-02T09:41:51;8.70;99.90
52531;DHT22;38441;52.894;6.040;2024-03-02T09:44:17;8.80;99.90
52531;DHT22;38441;52.894;6.040;2024-03-02T09:46:43;8.80;99.90
52531;DHT22;38441;52.894;6.040;2024-03-02T09:49:10;9.10;99.90
52531;DHT22;38441;52.894;6.040;2024-03-02T09:51:37;9.10;99.90
52531;DHT22;38441;52.894;6.040;2024-03-02T09:54:07;9.10;99.90
52531;DHT22;38441;52.894;6.040;2024-03-02T09:56:33;9.20;99.90
52531;DHT22;38441;52.894;6.040;2024-03-02T09:58:59;9.30;99.90
52531;DHT22;38441;52.894;6.040;2024-03-02T10:01:25;9.40;99.90
52531;DHT22;38441;52.894;6.040;2024-03-02T10:03:51;9.50;99.90
52531;DHT22;38441;52.894;6.040;2024-03-02T10:06:19;9.60;99.90
52531;DHT22;38441;52.894;6.040;2024-03-02T10:08:45;9.60;99.90
52531;DHT22;38441;52.894;6.040;2024-03-02T10:11:33;9.60;99.90
52531;DHT22;38441;52.894;6.040;2024-03-02T10:14:10;9.90;99.90
52531;DHT22;38441;52.894;6.040;2024-03-02T10:16:39;9.80;99.90
52531;DHT22;38441;52.894;6.040;2024-03-02T10:19:19;9.90;99.90
52531;DHT22;38441;52.894;6.040;2024-03-02T10:21:49;9.90;99.90
52531;DHT22;38441;52.894;6.040;2024-03-02T10:24:16;10.00;99.90
52531;DHT22;38441;52.894;6.040;2024-03-02T10:26:42;9.90;99.90
52531;DHT22;38441;52.894;6.040;2024-03-02T10:29:12;10.10;99.90
52531;DHT22;38441;52.894;6.040;2024-03-02T10:31:39;10.10;99.90
52531;DHT22;38441;52.894;6.040;2024-03-02T10:34:06;10.20;99.90
52531;DHT22;38441;52.894;6.040;2024-03-02T10:36:33;10.20;99.90
52531;DHT22;38441;52.894;6.040;2024-03-02T10:39:04;10.20;99.90
52531;DHT22;38441;52.894;6.040;2024-03-02T10:41:36;10.20;99.90
52531;DHT22;38441;52.894;6.040;2024-03-02T10:44:06;10.40;99.90
52531;DHT22;38441;52.894;6.040;2024-03-02T10:46:34;10.50;99.90
52531;DHT22;38441;52.894;6.040;2024-03-02T10:49:01;10.50;99.90
52531;DHT22;38441;52.894;6.040;2024-03-02T10:51:29;10.50;99.90
52531;DHT22;38441;52.894;6.040;2024-03-02T10:53:58;10.50;99.90
52531;DHT22;38441;52.894;6.040;2024-03-02T10:56:41;10.60;99.90
52531;DHT22;38441;52.894;6.040;2024-03-02T11:01:57;10.70;99.90
52531;DHT22;38441;52.894;6.040;2024-03-02T11:04:25;10.70;99.90
52531;DHT22;38441;52.894;6.040;2024-03-02T11:06:52;10.80;99.90
52531;DHT22;38441;52.894;6.040;2024-03-02T11:09:21;10.80;99.90
52531;DHT22;38441;52.894;6.040;2024-03-02T11:12:09;10.80;99.90
52531;DHT22;38441;52.894;6.040;2024-03-02T11:14:40;10.80;99.90
52531;DHT22;38441;52.894;6.040;2024-03-02T11:17:08;10.80;99.90
52531;DHT22;38441;52.894;6.040;2024-03-02T11:19:35;10.90;99.90
52531;DHT22;38441;52.894;6.040;2024-03-02T11:22:02;10.90;99.90
52531;DHT22;38441;52.894;6.040;2024-03-02T11:24:30;10.90;99.90
52531;DHT22;38441;52.894;6.040;2024-03-02T11:26:59;11.00;99.90
52531;DHT22;38441;52.894;6.040;2024-03-02T11:32:22;11.10;99.90
52531;DHT22;38441;52.894;6.040;2024-03-02T11:34:51;11.10;99.90
52531;DHT22;38441;52.894;6.040;2024-03-02T11:37:18;11.20;99.90
52531;DHT22;38441;52.894;6.040;2024-03-02T11:39:44;11.30;99.90
52531;DHT22;38441;52.894;6.040;2024-03-02T11:42:11;11.30;99.90
52531;DHT22;38441;52.894;6.040;2024-03-02T11:44:49;11.20;99.90
52531;DHT22;38441;52.894;6.040;2024-03-02T11:47:17;11.20;99.90
52531;DHT22;38441;52.894;6.040;2024-03-02T11:49:50;11.30;99.90
52531;DHT22;38441;52.894;6.040;2024-03-02T11:52:17;11.40;99.90
52531;DHT22;38441;52.894;6.040;2024-03-02T11:54:45;11.40;99.90
52531;DHT22;38441;52.894;6.040;2024-03-02T11:57:16;11.50;99.90
52531;DHT22;38441;52.894;6.040;2024-03-02T11:59:42;11.50;99.90
52531;DHT22;38441;52.894;6.040;2024-03-02T12:02:16;11.50;99.90
52531;DHT22;38441;52.894;6.040;2024-03-02T12:04:43;11.40;99.90
52531;DHT22;38441;52.894;6.040;2024-03-02T12:07:10;11.60;99.90
52531;DHT22;38441;52.894;6.040;2024-03-02T12:09:36;11.60;99.90
52531;DHT22;38441;52.894;6.040;2024-03-02T12:12:08;11.80;99.90
52531;DHT22;38441;52.894;6.040;2024-03-02T12:14:36;11.60;99.90
52531;DHT22;38441;52.894;6.040;2024-03-02T12:17:03;11.80;99.90
52531;DHT22;38441;52.894;6.040;2024-03-02T12:19:29;11.70;99.90
52531;DHT22;38441;52.894;6.040;2024-03-02T12:21:59;11.90;99.90
52531;DHT22;38441;52.894;6.040;2024-03-02T12:24:29;11.90;99.90
52531;DHT22;38441;52.894;6.040;2024-03-02T12:26:58;12.00;99.90
52531;DHT22;38441;52.894;6.040;2024-03-02T12:29:24;11.80;99.90
52531;DHT22;38441;52.894;6.040;2024-03-02T12:31:52;11.90;99.90
52531;DHT22;38441;52.894;6.040;2024-03-02T12:34:18;11.90;99.90
52531;DHT22;38441;52.894;6.040;2024-03-02T12:36:45;11.90;99.90
52531;DHT22;38441;52.894;6.040;2024-03-02T12:39:13;11.90;99.90
52531;DHT22;38441;52.894;6.040;2024-03-02T12:41:39;12.00;99.90
52531;DHT22;38441;52.894;6.040;2024-03-02T12:44:06;11.80;99.90
52531;DHT22;38441;52.894;6.040;2024-03-02T12:46:32;11.80;99.90
52531;DHT22;38441;52.894;6.040;2024-03-02T12:48:58;11.90;99.90
52531;DHT22;38441;52.894;6.040;2024-03-02T12:51:27;12.00;99.90
52531;DHT22;38441;52.894;6.040;2024-03-02T12:53:54;11.80;99.90
52531;DHT22;38441;52.894;6.040;2024-03-02T12:56:20;11.90;99.90
52531;DHT22;38441;52.894;6.040;2024-03-02T12:58:46;11.90;99.90
52531;DHT22;38441;52.894;6.040;2024-03-02T13:01:15;11.80;99.90
52531;DHT22;38441;52.894;6.040;2024-03-02T13:03:44;12.00;99.90
52531;DHT22;38441;52.894;6.040;2024-03-02T13:06:10;12.10;99.90
52531;DHT22;38441;52.894;6.040;2024-03-02T13:08:35;12.10;99.90
52531;DHT22;38441;52.894;6.040;2024-03-02T13:11:02;12.10;99.90
52531;DHT22;38441;52.894;6.040;2024-03-02T13:13:31;12.20;99.90
52531;DHT22;38441;52.894;6.040;2024-03-02T13:15:56;12.10;99.90
52531;DHT22;38441;52.894;6.040;2024-03-02T13:18:22;12.20;99.90
52531;DHT22;38441;52.894;6.040;2024-03-02T13:20:48;12.30;99.90
52531;DHT22;38441;52.894;6.040;2024-03-02T13:23:14;12.30;99.90
52531;DHT22;38441;52.894;6.040;2024-03-02T13:25:40;12.20;99.90
52531;DHT22;38441;52.894;6.040;2024-03-02T13:28:06;12.40;99.90
52531;DHT22;38441;52.894;6.040;2024-03-02T13:30:32;12.30;99.90
52531;DHT22;38441;52.894;6.040;2024-03-02T13:32:58;12.30;99.90
52531;DHT22;38441;52.894;6.040;2024-03-02T13:35:23;12.20;99.90
52531;DHT22;38441;52.894;6.040;2024-03-02T13:37:49;12.20;99.90
52531;DHT22;38441;52.894;6.040;2024-03-02T13:40:16;12.10;99.90
52531;DHT22;38441;52.894;6.040;2024-03-02T13:42:45;12.20;99.90
52531;DHT22;38441;52.894;6.040;2024-03-02T13:45:14;12.10;99.90
52531;DHT22;38441;52.894;6.040;2024-03-02T13:47:41;12.10;99.90
52531;DHT22;38441;52.894;6.040;2024-03-02T13:50:07;12.00;99.90
52531;DHT22;38441;52.894;6.040;2024-03-02T13:52:32;12.00;99.90
52531;DHT22;38441;52.894;6.040;2024-03-02T13:54:58;12.00;99.90
52531;DHT22;38441;52.894;6.040;2024-03-02T13:57:24;11.70;99.90
52531;DHT22;38441;52.894;6.040;2024-03-02T13:59:50;11.70;99.90
52531;DHT22;38441;52.894;6.040;2024-03-02T14:02:17;11.90;99.90
52531;DHT22;38441;52.894;6.040;2024-03-02T14:04:43;11.80;99.90
52531;DHT22;38441;52.894;6.040;2024-03-02T14:07:10;11.80;99.90
52531;DHT22;38441;52.894;6.040;2024-03-02T14:09:38;11.70;99.90
52531;DHT22;38441;52.894;6.040;2024-03-02T14:12:04;11.80;99.90
52531;DHT22;38441;52.894;6.040;2024-03-02T14:14:30;11.80;99.90
52531;DHT22;38441;52.894;6.040;2024-03-02T14:16:59;12.30;99.90
52531;DHT22;38441;52.894;6.040;2024-03-02T14:19:29;12.20;99.90
52531;DHT22;38441;52.894;6.040;2024-03-02T14:21:54;12.20;99.90
52531;DHT22;38441;52.894;6.040;2024-03-02T14:24:20;12.20;99.90
52531;DHT22;38441;52.894;6.040;2024-03-02T14:26:52;12.40;99.90
52531;DHT22;38441;52.894;6.040;2024-03-02T14:29:18;12.50;99.90
52531;DHT22;38441;52.894;6.040;2024-03-02T14:31:44;12.30;99.90
52531;DHT22;38441;52.894;6.040;2024-03-02T14:34:13;12.40;99.90
52531;DHT22;38441;52.894;6.040;2024-03-02T14:36:39;12.40;99.90
52531;DHT22;38441;52.894;6.040;2024-03-02T14:39:11;12.50;99.90
52531;DHT22;38441;52.894;6.040;2024-03-02T14:41:37;12.30;99.90
52531;DHT22;38441;52.894;6.040;2024-03-02T14:44:03;12.50;99.90
52531;DHT22;38441;52.894;6.040;2024-03-02T14:46:29;12.40;99.90
52531;DHT22;38441;52.894;6.040;2024-03-02T14:48:55;12.60;99.90
52531;DHT22;38441;52.894;6.040;2024-03-02T14:51:20;12.60;99.90
52531;DHT22;38441;52.894;6.040;2024-03-02T14:53:46;12.50;99.90
52531;DHT22;38441;52.894;6.040;2024-03-02T14:56:12;12.50;99.90
52531;DHT22;38441;52.894;6.040;2024-03-02T14:58:39;12.50;99.90
52531;DHT22;38441;52.894;6.040;2024-03-02T15:01:05;12.60;99.90
52531;DHT22;38441;52.894;6.040;2024-03-02T15:03:31;12.50;99.90
52531;DHT22;38441;52.894;6.040;2024-03-02T15:05:57;12.30;99.90
52531;DHT22;38441;52.894;6.040;2024-03-02T15:08:23;12.30;99.90
52531;DHT22;38441;52.894;6.040;2024-03-02T15:10:49;12.10;99.90
52531;DHT22;38441;52.894;6.040;2024-03-02T15:13:14;12.20;99.90
52531;DHT22;38441;52.894;6.040;2024-03-02T15:15:41;12.10;99.90
52531;DHT22;38441;52.894;6.040;2024-03-02T15:18:06;12.10;99.90
52531;DHT22;38441;52.894;6.040;2024-03-02T15:20:33;12.00;99.90
52531;DHT22;38441;52.894;6.040;2024-03-02T15:22:59;12.00;99.90
52531;DHT22;38441;52.894;6.040;2024-03-02T15:25:25;11.90;99.90
52531;DHT22;38441;52.894;6.040;2024-03-02T15:27:50;11.90;99.90
52531;DHT22;38441;52.894;6.040;2024-03-02T15:30:16;11.90;99.90
52531;DHT22;38441;52.894;6.040;2024-03-02T15:32:42;12.00;99.90
52531;DHT22;38441;52.894;6.040;2024-03-02T15:35:08;12.00;99.90
52531;DHT22;38441;52.894;6.040;2024-03-02T15:37:34;12.00;99.90
52531;DHT22;38441;52.894;6.040;2024-03-02T15:39:59;11.90;99.90
52531;DHT22;38441;52.894;6.040;2024-03-02T15:42:35;11.80;99.90
52531;DHT22;38441;52.894;6.040;2024-03-02T15:45:01;11.80;99.90
52531;DHT22;38441;52.894;6.040;2024-03-02T15:47:27;11.70;99.90
52531;DHT22;38441;52.894;6.040;2024-03-02T15:49:53;11.60;99.90
52531;DHT22;38441;52.894;6.040;2024-03-02T15:52:19;11.70;99.90
52531;DHT22;38441;52.894;6.040;2024-03-02T15:54:52;11.60;99.90
52531;DHT22;38441;52.894;6.040;2024-03-02T15:57:17;11.40;99.90
52531;DHT22;38441;52.894;6.040;2024-03-02T15:59:44;11.60;99.90
52531;DHT22;38441;52.894;6.040;2024-03-02T16:02:10;11.50;99.90
52531;DHT22;38441;52.894;6.040;2024-03-02T16:04:36;11.50;99.90
52531;DHT22;38441;52.894;6.040;2024-03-02T16:07:01;11.70;99.90
52531;DHT22;38441;52.894;6.040;2024-03-02T16:09:27;11.50;99.90
52531;DHT22;38441;52.894;6.040;2024-03-02T16:11:53;11.40;99.90
52531;DHT22;38441;52.894;6.040;2024-03-02T16:14:18;11.50;99.90
52531;DHT22;38441;52.894;6.040;2024-03-02T16:16:44;11.60;99.90
52531;DHT22;38441;52.894;6.040;2024-03-02T16:19:10;11.50;99.90
52531;DHT22;38441;52.894;6.040;2024-03-02T16:21:36;11.50;99.90
52531;DHT22;38441;52.894;6.040;2024-03-02T16:24:02;11.40;99.90
52531;DHT22;38441;52.894;6.040;2024-03-02T16:26:27;11.50;99.90
52531;DHT22;38441;52.894;6.040;2024-03-02T16:28:53;11.40;99.90
52531;DHT22;38441;52.894;6.040;2024-03-02T16:31:19;11.40;99.90
52531;DHT22;38441;52.894;6.040;2024-03-02T16:33:44;11.30;99.90
52531;DHT22;38441;52.894;6.040;2024-03-02T16:36:10;11.20;99.90
52531;DHT22;38441;52.894;6.040;2024-03-02T16:38:42;11.30;99.90
52531;DHT22;38441;52.894;6.040;2024-03-02T16:41:09;11.30;99.90
52531;DHT22;38441;52.894;6.040;2024-03-02T16:43:35;11.20;99.90
52531;DHT22;38441;52.894;6.040;2024-03-02T16:46:01;11.00;99.90
52531;DHT22;38441;52.894;6.040;2024-03-02T16:48:26;11.00;99.90
52531;DHT22;38441;52.894;6.040;2024-03-02T16:50:52;11.00;99.90
52531;DHT22;38441;52.894;6.040;2024-03-02T16:53:18;11.00;99.90
52531;DHT22;38441;52.894;6.040;2024-03-02T16:55:43;11.00;99.90
52531;DHT22;38441;52.894;6.040;2024-03-02T16:58:09;10.90;99.90
52531;DHT22;38441;52.894;6.040;2024-03-02T17:00:35;10.60;99.90
52531;DHT22;38441;52.894;6.040;2024-03-02T17:03:01;10.70;99.90
52531;DHT22;38441;52.894;6.040;2024-03-02T17:05:26;10.70;99.90
52531;DHT22;38441;52.894;6.040;2024-03-02T17:07:52;10.70;99.90
52531;DHT22;38441;52.894;6.040;2024-03-02T17:10:18;10.70;99.90
52531;DHT22;38441;52.894;6.040;2024-03-02T17:12:44;10.40;99.90
52531;DHT22;38441;52.894;6.040;2024-03-02T17:15:10;10.40;99.90
52531;DHT22;38441;52.894;6.040;2024-03-02T17:17:36;10.40;99.90
52531;DHT22;38441;52.894;6.040;2024-03-02T17:20:02;10.30;99.90
52531;DHT22;38441;52.894;6.040;2024-03-02T17:22:30;10.30;99.90
52531;DHT22;38441;52.894;6.040;2024-03-02T17:24:57;10.20;99.90